sensor_id;sensor_type;location;lat;lon;timestamp;P1;durP1;ratioP1;P2;durP2;ratioP2
17947;SDS011;9099;47.958;11.366;2022-10-16T00:00:39;0.90;;;0.90;;
17947;SDS011;9099;47.958;11.366;2022-10-16T00:03:07;1.13;;;1.02;;
17947;SDS011;9099;47.958;11.366;2022-10-16T00:05:38;1.33;;;0.90;;
17947;SDS011;9099;47.958;11.366;2022-10-16T00:08:06;4.28;;;1.20;;
17947;SDS011;9099;47.958;11.366;2022-10-16T00:10:34;1.20;;;1.10;;
17947;SDS011;9099;47.958;11.366;2022-10-16T00:13:03;1.10;;;0.93;;
17947;SDS011;9099;47.958;11.366;2022-10-16T00:15:32;1.35;;;0.70;;
17947;SDS011;9099;47.958;11.366;2022-10-16T00:18:01;1.48;;;0.80;;
17947;SDS011;9099;47.958;11.366;2022-10-16T00:20:28;1.85;;;0.70;;
17947;SDS011;9099;47.958;11.366;2022-10-16T00:22:56;0.85;;;0.85;;
17947;SDS011;9099;47.958;11.366;2022-10-16T00:25:23;0.60;;;0.60;;
17947;SDS011;9099;47.958;11.366;2022-10-16T00:27:50;0.70;;;0.70;;
17947;SDS011;9099;47.958;11.366;2022-10-16T00:30:22;1.55;;;1.10;;
17947;SDS011;9099;47.958;11.366;2022-10-16T00:32:51;1.05;;;0.90;;
17947;SDS011;9099;47.958;11.366;2022-10-16T00:35:18;1.15;;;0.60;;
17947;SDS011;9099;47.958;11.366;2022-10-16T00:37:45;2.30;;;0.80;;
17947;SDS011;9099;47.958;11.366;2022-10-16T00:40:12;0.90;;;0.70;;
17947;SDS011;9099;47.958;11.366;2022-10-16T00:42:39;1.13;;;0.80;;
17947;SDS011;9099;47.958;11.366;2022-10-16T00:45:08;0.82;;;0.70;;
17947;SDS011;9099;47.958;11.366;2022-10-16T00:47:38;0.63;;;0.60;;
17947;SDS011;9099;47.958;11.366;2022-10-16T00:50:13;0.75;;;0.75;;
17947;SDS011;9099;47.958;11.366;2022-10-16T00:52:46;1.08;;;0.60;;
17947;SDS011;9099;47.958;11.366;2022-10-16T00:55:14;0.65;;;0.65;;
17947;SDS011;9099;47.958;11.366;2022-10-16T00:57:41;0.60;;;0.60;;
17947;SDS011;9099;47.958;11.366;2022-10-16T01:00:11;0.70;;;0.70;;
17947;SDS011;9099;47.958;11.366;2022-10-16T01:02:43;0.80;;;0.80;;
17947;SDS011;9099;47.958;11.366;2022-10-16T01:05:10;1.15;;;0.70;;
17947;SDS011;9099;47.958;11.366;2022-10-16T01:07:39;0.60;;;0.60;;
17947;SDS011;9099;47.958;11.366;2022-10-16T01:10:15;0.70;;;0.70;;
17947;SDS011;9099;47.958;11.366;2022-10-16T01:12:50;0.90;;;0.80;;
17947;SDS011;9099;47.958;11.366;2022-10-16T01:15:24;0.60;;;0.60;;
17947;SDS011;9099;47.958;11.366;2022-10-16T01:17:56;1.08;;;0.77;;
17947;SDS011;9099;47.958;11.366;2022-10-16T01:20:29;0.90;;;0.90;;
17947;SDS011;9099;47.958;11.366;2022-10-16T01:23:02;0.75;;;0.63;;
17947;SDS011;9099;47.958;11.366;2022-10-16T01:25:37;0.70;;;0.70;;
17947;SDS011;9099;47.958;11.366;2022-10-16T01:28:17;0.70;;;0.70;;
17947;SDS011;9099;47.958;11.366;2022-10-16T01:30:48;1.17;;;0.73;;
17947;SDS011;9099;47.958;11.366;2022-10-16T01:33:19;1.23;;;0.70;;
17947;SDS011;9099;47.958;11.366;2022-10-16T01:35:51;0.70;;;0.70;;
17947;SDS011;9099;47.958;11.366;2022-10-16T01:38:22;0.70;;;0.70;;
17947;SDS011;9099;47.958;11.366;2022-10-16T01:40:56;1.02;;;0.68;;
17947;SDS011;9099;47.958;11.366;2022-10-16T01:43:29;0.77;;;0.77;;
17947;SDS011;9099;47.958;11.366;2022-10-16T01:46:00;0.85;;;0.82;;
17947;SDS011;9099;47.958;11.366;2022-10-16T01:48:28;0.82;;;0.60;;
17947;SDS011;9099;47.958;11.366;2022-10-16T01:50:58;1.08;;;0.70;;
17947;SDS011;9099;47.958;11.366;2022-10-16T01:53:28;1.00;;;0.60;;
17947;SDS011;9099;47.958;11.366;2022-10-16T01:55:56;0.73;;;0.73;;
17947;SDS011;9099;47.958;11.366;2022-10-16T01:58:26;0.82;;;0.70;;
17947;SDS011;9099;47.958;11.366;2022-10-16T02:00:59;0.60;;;0.60;;
17947;SDS011;9099;47.958;11.366;2022-10-16T02:03:27;0.77;;;0.70;;
17947;SDS011;9099;47.958;11.366;2022-10-16T02:05:55;0.90;;;0.75;;
17947;SDS011;9099;47.958;11.366;2022-10-16T02:08:24;1.15;;;0.70;;
17947;SDS011;9099;47.958;11.366;2022-10-16T02:10:54;0.60;;;0.60;;
17947;SDS011;9099;47.958;11.366;2022-10-16T02:13:22;0.47;;;0.47;;
17947;SDS011;9099;47.958;11.366;2022-10-16T02:15:53;0.57;;;0.57;;
17947;SDS011;9099;47.958;11.366;2022-10-16T02:18:20;0.63;;;0.63;;
17947;SDS011;9099;47.958;11.366;2022-10-16T02:20:48;0.88;;;0.88;;
17947;SDS011;9099;47.958;11.366;2022-10-16T02:23:21;0.85;;;0.85;;
17947;SDS011;9099;47.958;11.366;2022-10-16T02:25:53;0.73;;;0.73;;
17947;SDS011;9099;47.958;11.366;2022-10-16T02:28:23;0.80;;;0.80;;
17947;SDS011;9099;47.958;11.366;2022-10-16T02:30:56;0.68;;;0.65;;
17947;SDS011;9099;47.958;11.366;2022-10-16T02:33:26;0.70;;;0.70;;
17947;SDS011;9099;47.958;11.366;2022-10-16T02:35:55;1.05;;;0.70;;
17947;SDS011;9099;47.958;11.366;2022-10-16T02:38:23;0.70;;;0.70;;
17947;SDS011;9099;47.958;11.366;2022-10-16T02:40:51;0.85;;;0.63;;
17947;SDS011;9099;47.958;11.366;2022-10-16T02:43:18;0.70;;;0.70;;
17947;SDS011;9099;47.958;11.366;2022-10-16T02:45:46;0.60;;;0.60;;
17947;SDS011;9099;47.958;11.366;2022-10-16T02:48:14;1.40;;;0.68;;
17947;SDS011;9099;47.958;11.366;2022-10-16T02:50:41;0.90;;;0.85;;
17947;SDS011;9099;47.958;11.366;2022-10-16T02:53:08;2.78;;;1.20;;
17947;SDS011;9099;47.958;11.366;2022-10-16T02:55:35;1.00;;;1.00;;
17947;SDS011;9099;47.958;11.366;2022-10-16T02:58:02;1.90;;;1.10;;
17947;SDS011;9099;47.958;11.366;2022-10-16T03:00:30;1.13;;;1.00;;
17947;SDS011;9099;47.958;11.366;2022-10-16T03:02:57;1.20;;;0.90;;
17947;SDS011;9099;47.958;11.366;2022-10-16T03:05:25;1.00;;;0.93;;
17947;SDS011;9099;47.958;11.366;2022-10-16T03:07:52;1.20;;;1.10;;
17947;SDS011;9099;47.958;11.366;2022-10-16T03:10:19;1.00;;;1.00;;
17947;SDS011;9099;47.958;11.366;2022-10-16T03:12:46;2.20;;;1.38;;
17947;SDS011;9099;47.958;11.366;2022-10-16T03:15:13;1.10;;;0.88;;
17947;SDS011;9099;47.958;11.366;2022-10-16T03:17:40;1.52;;;1.10;;
17947;SDS011;9099;47.958;11.366;2022-10-16T03:20:07;1.05;;;1.02;;
17947;SDS011;9099;47.958;11.366;2022-10-16T03:22:36;1.80;;;0.88;;
17947;SDS011;9099;47.958;11.366;2022-10-16T03:25:06;0.82;;;0.80;;
17947;SDS011;9099;47.958;11.366;2022-10-16T03:27:34;0.98;;;0.98;;
17947;SDS011;9099;47.958;11.366;2022-10-16T03:30:00;0.90;;;0.90;;
17947;SDS011;9099;47.958;11.366;2022-10-16T03:32:27;1.00;;;0.98;;
17947;SDS011;9099;47.958;11.366;2022-10-16T03:34:54;0.73;;;0.73;;
17947;SDS011;9099;47.958;11.366;2022-10-16T03:37:22;2.15;;;1.00;;
17947;SDS011;9099;47.958;11.366;2022-10-16T03:39:53;1.17;;;1.00;;
17947;SDS011;9099;47.958;11.366;2022-10-16T03:42:20;0.52;;;0.52;;
17947;SDS011;9099;47.958;11.366;2022-10-16T03:44:47;0.88;;;0.65;;
17947;SDS011;9099;47.958;11.366;2022-10-16T03:47:14;0.63;;;0.63;;
17947;SDS011;9099;47.958;11.366;2022-10-16T03:49:45;0.80;;;0.80;;
17947;SDS011;9099;47.958;11.366;2022-10-16T03:52:12;0.70;;;0.70;;
17947;SDS011;9099;47.958;11.366;2022-10-16T03:54:40;0.80;;;0.80;;
17947;SDS011;9099;47.958;11.366;2022-10-16T03:57:08;0.70;;;0.70;;
17947;SDS011;9099;47.958;11.366;2022-10-16T03:59:36;1.08;;;0.95;;
17947;SDS011;9099;47.958;11.366;2022-10-16T04:02:03;1.35;;;0.90;;
17947;SDS011;9099;47.958;11.366;2022-10-16T04:04:30;0.82;;;0.80;;
17947;SDS011;9099;47.958;11.366;2022-10-16T04:06:57;1.15;;;0.80;;
17947;SDS011;9099;47.958;11.366;2022-10-16T04:09:24;0.77;;;0.73;;
17947;SDS011;9099;47.958;11.366;2022-10-16T04:11:51;1.85;;;0.77;;
17947;SDS011;9099;47.958;11.366;2022-10-16T04:14:20;0.57;;;0.57;;
17947;SDS011;9099;47.958;11.366;2022-10-16T04:16:47;2.30;;;0.90;;
17947;SDS011;9099;47.958;11.366;2022-10-16T04:19:16;1.23;;;0.75;;
17947;SDS011;9099;47.958;11.366;2022-10-16T04:21:43;0.93;;;0.93;;
17947;SDS011;9099;47.958;11.366;2022-10-16T04:24:10;0.77;;;0.77;;
17947;SDS011;9099;47.958;11.366;2022-10-16T04:26:37;1.67;;;0.90;;
17947;SDS011;9099;47.958;11.366;2022-10-16T04:29:04;1.00;;;0.90;;
17947;SDS011;9099;47.958;11.366;2022-10-16T04:31:33;0.90;;;0.90;;
17947;SDS011;9099;47.958;11.366;2022-10-16T04:34:00;1.20;;;0.80;;
17947;SDS011;9099;47.958;11.366;2022-10-16T04:36:27;1.63;;;1.08;;
17947;SDS011;9099;47.958;11.366;2022-10-16T04:38:54;0.80;;;0.80;;
17947;SDS011;9099;47.958;11.366;2022-10-16T04:41:21;0.80;;;0.80;;
17947;SDS011;9099;47.958;11.366;2022-10-16T04:43:48;2.83;;;0.88;;
17947;SDS011;9099;47.958;11.366;2022-10-16T04:46:15;0.40;;;0.40;;
17947;SDS011;9099;47.958;11.366;2022-10-16T04:48:44;0.93;;;0.70;;
17947;SDS011;9099;47.958;11.366;2022-10-16T04:51:11;0.80;;;0.80;;
17947;SDS011;9099;47.958;11.366;2022-10-16T04:53:41;0.80;;;0.80;;
17947;SDS011;9099;47.958;11.366;2022-10-16T04:56:08;0.80;;;0.80;;
17947;SDS011;9099;47.958;11.366;2022-10-16T04:58:35;1.50;;;1.00;;
17947;SDS011;9099;47.958;11.366;2022-10-16T05:01:02;1.15;;;1.15;;
17947;SDS011;9099;47.958;11.366;2022-10-16T05:03:29;0.80;;;0.80;;
17947;SDS011;9099;47.958;11.366;2022-10-16T05:05:57;1.20;;;0.90;;
17947;SDS011;9099;47.958;11.366;2022-10-16T05:08:24;0.90;;;0.90;;
17947;SDS011;9099;47.958;11.366;2022-10-16T05:10:51;1.10;;;0.98;;
17947;SDS011;9099;47.958;11.366;2022-10-16T05:13:18;2.53;;;1.10;;
17947;SDS011;9099;47.958;11.366;2022-10-16T05:15:46;2.15;;;1.38;;
17947;SDS011;9099;47.958;11.366;2022-10-16T05:18:14;1.30;;;1.20;;
17947;SDS011;9099;47.958;11.366;2022-10-16T05:20:40;1.20;;;1.20;;
17947;SDS011;9099;47.958;11.366;2022-10-16T05:23:09;1.23;;;1.10;;
17947;SDS011;9099;47.958;11.366;2022-10-16T05:25:36;1.23;;;1.10;;
17947;SDS011;9099;47.958;11.366;2022-10-16T05:28:03;1.50;;;1.40;;
17947;SDS011;9099;47.958;11.366;2022-10-16T05:30:30;1.40;;;1.30;;
17947;SDS011;9099;47.958;11.366;2022-10-16T05:32:57;2.05;;;1.25;;
17947;SDS011;9099;47.958;11.366;2022-10-16T05:35:24;0.95;;;0.95;;
17947;SDS011;9099;47.958;11.366;2022-10-16T05:37:51;1.00;;;1.00;;
17947;SDS011;9099;47.958;11.366;2022-10-16T05:40:20;1.23;;;1.13;;
17947;SDS011;9099;47.958;11.366;2022-10-16T05:42:47;1.20;;;1.10;;
17947;SDS011;9099;47.958;11.366;2022-10-16T05:45:14;2.15;;;1.20;;
17947;SDS011;9099;47.958;11.366;2022-10-16T05:47:41;1.10;;;1.10;;
17947;SDS011;9099;47.958;11.366;2022-10-16T05:50:08;1.23;;;1.13;;
17947;SDS011;9099;47.958;11.366;2022-10-16T05:52:35;1.45;;;1.10;;
17947;SDS011;9099;47.958;11.366;2022-10-16T05:55:02;1.10;;;1.10;;
17947;SDS011;9099;47.958;11.366;2022-10-16T05:57:31;1.10;;;1.10;;
17947;SDS011;9099;47.958;11.366;2022-10-16T05:59:58;1.77;;;1.30;;
17947;SDS011;9099;47.958;11.366;2022-10-16T06:02:25;1.00;;;1.00;;
17947;SDS011;9099;47.958;11.366;2022-10-16T06:04:52;0.85;;;0.85;;
17947;SDS011;9099;47.958;11.366;2022-10-16T06:07:19;1.08;;;1.05;;
17947;SDS011;9099;47.958;11.366;2022-10-16T06:09:47;1.10;;;1.10;;
17947;SDS011;9099;47.958;11.366;2022-10-16T06:12:15;0.95;;;0.95;;
17947;SDS011;9099;47.958;11.366;2022-10-16T06:14:43;0.90;;;0.90;;
17947;SDS011;9099;47.958;11.366;2022-10-16T06:17:11;0.90;;;0.90;;
17947;SDS011;9099;47.958;11.366;2022-10-16T06:19:38;1.00;;;1.00;;
17947;SDS011;9099;47.958;11.366;2022-10-16T06:22:06;3.47;;;1.00;;
17947;SDS011;9099;47.958;11.366;2022-10-16T06:24:33;1.05;;;1.05;;
17947;SDS011;9099;47.958;11.366;2022-10-16T06:27:00;1.48;;;1.05;;
17947;SDS011;9099;47.958;11.366;2022-10-16T06:29:27;1.70;;;1.20;;
17947;SDS011;9099;47.958;11.366;2022-10-16T06:31:55;0.90;;;0.90;;
17947;SDS011;9099;47.958;11.366;2022-10-16T06:34:22;4.43;;;1.30;;
17947;SDS011;9099;47.958;11.366;2022-10-16T06:36:49;1.77;;;1.42;;
17947;SDS011;9099;47.958;11.366;2022-10-16T06:39:16;1.08;;;1.05;;
17947;SDS011;9099;47.958;11.366;2022-10-16T06:41:43;0.90;;;0.90;;
17947;SDS011;9099;47.958;11.366;2022-10-16T06:44:10;3.00;;;1.02;;
17947;SDS011;9099;47.958;11.366;2022-10-16T06:46:36;0.95;;;0.95;;
17947;SDS011;9099;47.958;11.366;2022-10-16T06:49:05;0.90;;;0.90;;
17947;SDS011;9099;47.958;11.366;2022-10-16T06:51:32;1.35;;;1.25;;
17947;SDS011;9099;47.958;11.366;2022-10-16T06:54:00;1.45;;;1.30;;
17947;SDS011;9099;47.958;11.366;2022-10-16T06:56:27;1.50;;;0.90;;
17947;SDS011;9099;47.958;11.366;2022-10-16T06:58:55;1.50;;;1.40;;
17947;SDS011;9099;47.958;11.366;2022-10-16T07:01:23;1.30;;;1.20;;
17947;SDS011;9099;47.958;11.366;2022-10-16T07:03:50;1.10;;;1.10;;
17947;SDS011;9099;47.958;11.366;2022-10-16T07:06:21;1.30;;;1.30;;
17947;SDS011;9099;47.958;11.366;2022-10-16T07:08:49;1.90;;;1.15;;
17947;SDS011;9099;47.958;11.366;2022-10-16T07:11:17;1.20;;;1.20;;
17947;SDS011;9099;47.958;11.366;2022-10-16T07:13:45;0.98;;;0.98;;
17947;SDS011;9099;47.958;11.366;2022-10-16T07:16:14;1.20;;;1.20;;
17947;SDS011;9099;47.958;11.366;2022-10-16T07:18:42;1.40;;;1.30;;
17947;SDS011;9099;47.958;11.366;2022-10-16T07:21:11;1.20;;;1.20;;
17947;SDS011;9099;47.958;11.366;2022-10-16T07:23:40;1.17;;;1.17;;
17947;SDS011;9099;47.958;11.366;2022-10-16T07:26:08;1.17;;;1.17;;
17947;SDS011;9099;47.958;11.366;2022-10-16T07:28:35;1.25;;;1.25;;
17947;SDS011;9099;47.958;11.366;2022-10-16T07:31:03;1.45;;;1.25;;
17947;SDS011;9099;47.958;11.366;2022-10-16T07:33:32;1.40;;;1.30;;
17947;SDS011;9099;47.958;11.366;2022-10-16T07:35:59;1.35;;;1.35;;
17947;SDS011;9099;47.958;11.366;2022-10-16T07:38:25;1.50;;;1.40;;
17947;SDS011;9099;47.958;11.366;2022-10-16T07:40:57;1.45;;;1.38;;
17947;SDS011;9099;47.958;11.366;2022-10-16T07:43:25;1.85;;;1.45;;
17947;SDS011;9099;47.958;11.366;2022-10-16T07:45:52;1.30;;;1.30;;
17947;SDS011;9099;47.958;11.366;2022-10-16T07:48:20;1.30;;;1.30;;
17947;SDS011;9099;47.958;11.366;2022-10-16T07:50:47;3.08;;;1.30;;
17947;SDS011;9099;47.958;11.366;2022-10-16T07:53:14;3.38;;;1.60;;
17947;SDS011;9099;47.958;11.366;2022-10-16T07:55:41;1.45;;;1.33;;
17947;SDS011;9099;47.958;11.366;2022-10-16T07:58:09;1.80;;;1.70;;
17947;SDS011;9099;47.958;11.366;2022-10-16T08:00:36;1.92;;;1.83;;
17947;SDS011;9099;47.958;11.366;2022-10-16T08:03:03;2.10;;;1.90;;
17947;SDS011;9099;47.958;11.366;2022-10-16T08:05:31;1.80;;;1.70;;
17947;SDS011;9099;47.958;11.366;2022-10-16T08:07:59;1.88;;;1.77;;
17947;SDS011;9099;47.958;11.366;2022-10-16T08:10:26;1.88;;;1.77;;
17947;SDS011;9099;47.958;11.366;2022-10-16T08:12:54;2.53;;;1.70;;
17947;SDS011;9099;47.958;11.366;2022-10-16T08:15:22;1.60;;;1.60;;
17947;SDS011;9099;47.958;11.366;2022-10-16T08:17:56;2.70;;;1.70;;
17947;SDS011;9099;47.958;11.366;2022-10-16T08:20:23;1.95;;;1.85;;
17947;SDS011;9099;47.958;11.366;2022-10-16T08:22:51;1.98;;;1.88;;
17947;SDS011;9099;47.958;11.366;2022-10-16T08:25:19;1.80;;;1.70;;
17947;SDS011;9099;47.958;11.366;2022-10-16T08:27:46;2.45;;;1.80;;
17947;SDS011;9099;47.958;11.366;2022-10-16T08:30:19;2.08;;;1.98;;
17947;SDS011;9099;47.958;11.366;2022-10-16T08:32:49;1.77;;;1.67;;
17947;SDS011;9099;47.958;11.366;2022-10-16T08:35:16;1.95;;;1.65;;
17947;SDS011;9099;47.958;11.366;2022-10-16T08:37:43;2.17;;;1.80;;
17947;SDS011;9099;47.958;11.366;2022-10-16T08:40:15;1.98;;;1.70;;
17947;SDS011;9099;47.958;11.366;2022-10-16T08:42:47;2.20;;;2.10;;
17947;SDS011;9099;47.958;11.366;2022-10-16T08:45:37;2.00;;;1.83;;
17947;SDS011;9099;47.958;11.366;2022-10-16T08:48:19;2.10;;;2.00;;
17947;SDS011;9099;47.958;11.366;2022-10-16T08:50:51;2.80;;;1.80;;
17947;SDS011;9099;47.958;11.366;2022-10-16T08:53:20;1.90;;;1.80;;
17947;SDS011;9099;47.958;11.366;2022-10-16T08:55:53;2.03;;;1.83;;
17947;SDS011;9099;47.958;11.366;2022-10-16T08:58:20;2.00;;;1.90;;
17947;SDS011;9099;47.958;11.366;2022-10-16T09:00:49;1.83;;;1.73;;
17947;SDS011;9099;47.958;11.366;2022-10-16T09:03:23;2.00;;;1.90;;
17947;SDS011;9099;47.958;11.366;2022-10-16T09:06:17;2.00;;;1.90;;
17947;SDS011;9099;47.958;11.366;2022-10-16T09:08:53;2.15;;;1.98;;
17947;SDS011;9099;47.958;11.366;2022-10-16T09:11:34;1.90;;;1.80;;
17947;SDS011;9099;47.958;11.366;2022-10-16T09:14:17;2.00;;;1.90;;
17947;SDS011;9099;47.958;11.366;2022-10-16T09:16:53;1.92;;;1.83;;
17947;SDS011;9099;47.958;11.366;2022-10-16T09:19:28;2.53;;;1.90;;
17947;SDS011;9099;47.958;11.366;2022-10-16T09:22:01;2.25;;;2.05;;
17947;SDS011;9099;47.958;11.366;2022-10-16T09:24:40;1.95;;;1.85;;
17947;SDS011;9099;47.958;11.366;2022-10-16T09:27:08;2.20;;;2.00;;
17947;SDS011;9099;47.958;11.366;2022-10-16T09:29:37;2.08;;;1.98;;
17947;SDS011;9099;47.958;11.366;2022-10-16T09:32:08;2.10;;;2.00;;
17947;SDS011;9099;47.958;11.366;2022-10-16T09:34:43;2.20;;;2.00;;
17947;SDS011;9099;47.958;11.366;2022-10-16T09:37:14;2.00;;;1.90;;
17947;SDS011;9099;47.958;11.366;2022-10-16T09:39:45;2.10;;;2.00;;
17947;SDS011;9099;47.958;11.366;2022-10-16T09:42:14;2.05;;;1.95;;
17947;SDS011;9099;47.958;11.366;2022-10-16T09:44:46;2.22;;;2.13;;
17947;SDS011;9099;47.958;11.366;2022-10-16T09:47:19;1.70;;;1.70;;
17947;SDS011;9099;47.958;11.366;2022-10-16T09:50:03;2.20;;;2.10;;
17947;SDS011;9099;47.958;11.366;2022-10-16T09:53:02;2.08;;;1.98;;
17947;SDS011;9099;47.958;11.366;2022-10-16T09:55:32;2.05;;;1.92;;
17947;SDS011;9099;47.958;11.366;2022-10-16T09:58:11;2.03;;;1.92;;
17947;SDS011;9099;47.958;11.366;2022-10-16T10:00:50;2.15;;;2.05;;
17947;SDS011;9099;47.958;11.366;2022-10-16T10:03:30;2.03;;;1.90;;
17947;SDS011;9099;47.958;11.366;2022-10-16T10:06:13;1.90;;;1.80;;
17947;SDS011;9099;47.958;11.366;2022-10-16T10:08:52;2.10;;;2.00;;
17947;SDS011;9099;47.958;11.366;2022-10-16T10:14:13;2.00;;;1.90;;
17947;SDS011;9099;47.958;11.366;2022-10-16T10:16:44;2.42;;;2.10;;
17947;SDS011;9099;47.958;11.366;2022-10-16T10:19:13;2.08;;;1.98;;
17947;SDS011;9099;47.958;11.366;2022-10-16T10:21:43;2.35;;;2.15;;
17947;SDS011;9099;47.958;11.366;2022-10-16T10:24:10;2.33;;;1.85;;
17947;SDS011;9099;47.958;11.366;2022-10-16T10:26:40;2.22;;;2.13;;
17947;SDS011;9099;47.958;11.366;2022-10-16T10:29:14;2.05;;;1.83;;
17947;SDS011;9099;47.958;11.366;2022-10-16T10:31:52;2.20;;;2.10;;
17947;SDS011;9099;47.958;11.366;2022-10-16T10:34:34;2.00;;;1.90;;
17947;SDS011;9099;47.958;11.366;2022-10-16T10:37:18;1.90;;;1.80;;
17947;SDS011;9099;47.958;11.366;2022-10-16T10:40:02;1.85;;;1.70;;
17947;SDS011;9099;47.958;11.366;2022-10-16T10:42:37;1.85;;;1.75;;
17947;SDS011;9099;47.958;11.366;2022-10-16T10:45:22;1.98;;;1.80;;
17947;SDS011;9099;47.958;11.366;2022-10-16T10:47:57;1.90;;;1.80;;
17947;SDS011;9099;47.958;11.366;2022-10-16T10:50:33;1.80;;;1.70;;
17947;SDS011;9099;47.958;11.366;2022-10-16T10:53:10;1.90;;;1.80;;
17947;SDS011;9099;47.958;11.366;2022-10-16T10:55:45;3.30;;;1.65;;
17947;SDS011;9099;47.958;11.366;2022-10-16T10:58:27;1.80;;;1.70;;
17947;SDS011;9099;47.958;11.366;2022-10-16T11:01:08;1.85;;;1.75;;
17947;SDS011;9099;47.958;11.366;2022-10-16T11:03:44;2.05;;;1.88;;
17947;SDS011;9099;47.958;11.366;2022-10-16T11:06:28;1.80;;;1.70;;
17947;SDS011;9099;47.958;11.366;2022-10-16T11:09:02;1.83;;;1.73;;
17947;SDS011;9099;47.958;11.366;2022-10-16T11:11:38;1.95;;;1.85;;
17947;SDS011;9099;47.958;11.366;2022-10-16T11:14:11;1.88;;;1.77;;
17947;SDS011;9099;47.958;11.366;2022-10-16T11:16:43;1.50;;;1.50;;
17947;SDS011;9099;47.958;11.366;2022-10-16T11:19:19;1.58;;;1.55;;
17947;SDS011;9099;47.958;11.366;2022-10-16T11:21:56;1.45;;;1.45;;
17947;SDS011;9099;47.958;11.366;2022-10-16T11:24:34;1.23;;;1.20;;
17947;SDS011;9099;47.958;11.366;2022-10-16T11:27:04;1.38;;;1.38;;
17947;SDS011;9099;47.958;11.366;2022-10-16T11:29:36;1.40;;;1.35;;
17947;SDS011;9099;47.958;11.366;2022-10-16T11:32:15;2.67;;;1.50;;
17947;SDS011;9099;47.958;11.366;2022-10-16T11:34:49;1.40;;;1.40;;
17947;SDS011;9099;47.958;11.366;2022-10-16T11:37:19;1.67;;;1.58;;
17947;SDS011;9099;47.958;11.366;2022-10-16T11:39:52;1.40;;;1.30;;
17947;SDS011;9099;47.958;11.366;2022-10-16T11:42:26;1.10;;;1.10;;
17947;SDS011;9099;47.958;11.366;2022-10-16T11:44:57;1.50;;;1.02;;
17947;SDS011;9099;47.958;11.366;2022-10-16T11:47:31;0.90;;;0.90;;
17947;SDS011;9099;47.958;11.366;2022-10-16T11:50:01;0.90;;;0.90;;
17947;SDS011;9099;47.958;11.366;2022-10-16T11:52:36;1.00;;;1.00;;
17947;SDS011;9099;47.958;11.366;2022-10-16T11:55:13;1.08;;;1.00;;
17947;SDS011;9099;47.958;11.366;2022-10-16T11:57:43;0.90;;;0.90;;
17947;SDS011;9099;47.958;11.366;2022-10-16T12:00:17;1.15;;;0.95;;
17947;SDS011;9099;47.958;11.366;2022-10-16T12:02:50;2.47;;;0.95;;
17947;SDS011;9099;47.958;11.366;2022-10-16T12:05:28;0.90;;;0.90;;
17947;SDS011;9099;47.958;11.366;2022-10-16T12:08:03;0.90;;;0.90;;
17947;SDS011;9099;47.958;11.366;2022-10-16T12:10:38;1.65;;;1.00;;
17947;SDS011;9099;47.958;11.366;2022-10-16T12:16:03;0.90;;;0.88;;
17947;SDS011;9099;47.958;11.366;2022-10-16T12:18:32;0.90;;;0.90;;
17947;SDS011;9099;47.958;11.366;2022-10-16T12:20:59;0.90;;;0.90;;
17947;SDS011;9099;47.958;11.366;2022-10-16T12:23:30;0.98;;;0.88;;
17947;SDS011;9099;47.958;11.366;2022-10-16T12:25:59;1.48;;;1.42;;
17947;SDS011;9099;47.958;11.366;2022-10-16T12:28:27;1.20;;;1.20;;
17947;SDS011;9099;47.958;11.366;2022-10-16T12:30:57;1.33;;;1.20;;
17947;SDS011;9099;47.958;11.366;2022-10-16T12:33:26;0.98;;;0.98;;
17947;SDS011;9099;47.958;11.366;2022-10-16T12:35:54;1.10;;;1.00;;
17947;SDS011;9099;47.958;11.366;2022-10-16T12:38:25;2.30;;;0.80;;
17947;SDS011;9099;47.958;11.366;2022-10-16T12:40:55;0.70;;;0.70;;
17947;SDS011;9099;47.958;11.366;2022-10-16T12:43:27;0.68;;;0.68;;
17947;SDS011;9099;47.958;11.366;2022-10-16T12:46:03;1.02;;;0.95;;
17947;SDS011;9099;47.958;11.366;2022-10-16T12:48:46;0.90;;;0.90;;
17947;SDS011;9099;47.958;11.366;2022-10-16T12:51:21;0.85;;;0.85;;
17947;SDS011;9099;47.958;11.366;2022-10-16T12:53:57;2.17;;;1.00;;
17947;SDS011;9099;47.958;11.366;2022-10-16T12:56:28;0.80;;;0.80;;
17947;SDS011;9099;47.958;11.366;2022-10-16T12:59:08;0.80;;;0.80;;
17947;SDS011;9099;47.958;11.366;2022-10-16T13:01:49;0.70;;;0.70;;
17947;SDS011;9099;47.958;11.366;2022-10-16T13:04:31;3.40;;;0.80;;
17947;SDS011;9099;47.958;11.366;2022-10-16T13:07:17;0.82;;;0.82;;
17947;SDS011;9099;47.958;11.366;2022-10-16T13:10:01;0.88;;;0.70;;
17947;SDS011;9099;47.958;11.366;2022-10-16T13:12:42;0.85;;;0.85;;
17947;SDS011;9099;47.958;11.366;2022-10-16T13:18:09;1.85;;;0.90;;
17947;SDS011;9099;47.958;11.366;2022-10-16T13:20:48;0.77;;;0.70;;
17947;SDS011;9099;47.958;11.366;2022-10-16T13:23:23;0.95;;;0.80;;
17947;SDS011;9099;47.958;11.366;2022-10-16T13:25:59;1.50;;;0.60;;
17947;SDS011;9099;47.958;11.366;2022-10-16T13:28:37;0.60;;;0.60;;
17947;SDS011;9099;47.958;11.366;2022-10-16T13:31:04;0.73;;;0.73;;
17947;SDS011;9099;47.958;11.366;2022-10-16T13:33:39;1.38;;;0.80;;
17947;SDS011;9099;47.958;11.366;2022-10-16T13:36:17;2.25;;;0.70;;
17947;SDS011;9099;47.958;11.366;2022-10-16T13:38:45;0.60;;;0.60;;
17947;SDS011;9099;47.958;11.366;2022-10-16T13:41:13;0.80;;;0.80;;
17947;SDS011;9099;47.958;11.366;2022-10-16T13:43:43;0.98;;;0.90;;
17947;SDS011;9099;47.958;11.366;2022-10-16T13:46:13;1.10;;;0.57;;
17947;SDS011;9099;47.958;11.366;2022-10-16T13:48:41;1.17;;;0.70;;
17947;SDS011;9099;47.958;11.366;2022-10-16T13:51:12;0.75;;;0.75;;
17947;SDS011;9099;47.958;11.366;2022-10-16T13:53:43;0.80;;;0.80;;
17947;SDS011;9099;47.958;11.366;2022-10-16T13:56:11;0.70;;;0.70;;
17947;SDS011;9099;47.958;11.366;2022-10-16T13:58:39;2.28;;;0.80;;
17947;SDS011;9099;47.958;11.366;2022-10-16T14:01:15;0.77;;;0.77;;
17947;SDS011;9099;47.958;11.366;2022-10-16T14:03:44;0.95;;;0.70;;
17947;SDS011;9099;47.958;11.366;2022-10-16T14:06:13;0.80;;;0.80;;
17947;SDS011;9099;47.958;11.366;2022-10-16T14:08:43;0.68;;;0.68;;
17947;SDS011;9099;47.958;11.366;2022-10-16T14:11:19;0.95;;;0.65;;
17947;SDS011;9099;47.958;11.366;2022-10-16T14:13:47;0.70;;;0.70;;
17947;SDS011;9099;47.958;11.366;2022-10-16T14:16:17;2.20;;;0.90;;
17947;SDS011;9099;47.958;11.366;2022-10-16T14:18:46;1.70;;;0.73;;
17947;SDS011;9099;47.958;11.366;2022-10-16T14:21:21;1.17;;;0.60;;
17947;SDS011;9099;47.958;11.366;2022-10-16T14:23:48;2.05;;;0.75;;
17947;SDS011;9099;47.958;11.366;2022-10-16T14:26:16;0.70;;;0.70;;
17947;SDS011;9099;47.958;11.366;2022-10-16T14:28:45;0.60;;;0.60;;
17947;SDS011;9099;47.958;11.366;2022-10-16T14:31:30;1.60;;;0.68;;
17947;SDS011;9099;47.958;11.366;2022-10-16T14:34:00;0.80;;;0.80;;
17947;SDS011;9099;47.958;11.366;2022-10-16T14:36:27;0.50;;;0.50;;
17947;SDS011;9099;47.958;11.366;2022-10-16T14:38:57;1.60;;;0.80;;
17947;SDS011;9099;47.958;11.366;2022-10-16T14:41:27;1.83;;;0.70;;
17947;SDS011;9099;47.958;11.366;2022-10-16T14:43:55;1.73;;;0.65;;
17947;SDS011;9099;47.958;11.366;2022-10-16T14:46:28;0.70;;;0.70;;
17947;SDS011;9099;47.958;11.366;2022-10-16T14:49:00;0.60;;;0.60;;
17947;SDS011;9099;47.958;11.366;2022-10-16T14:51:29;0.82;;;0.70;;
17947;SDS011;9099;47.958;11.366;2022-10-16T14:53:56;0.60;;;0.60;;
17947;SDS011;9099;47.958;11.366;2022-10-16T14:56:23;0.60;;;0.60;;
17947;SDS011;9099;47.958;11.366;2022-10-16T14:58:53;0.95;;;0.57;;
17947;SDS011;9099;47.958;11.366;2022-10-16T15:01:19;0.60;;;0.60;;
17947;SDS011;9099;47.958;11.366;2022-10-16T15:03:48;1.50;;;0.60;;
17947;SDS011;9099;47.958;11.366;2022-10-16T15:06:17;2.53;;;0.60;;
17947;SDS011;9099;47.958;11.366;2022-10-16T15:08:44;0.30;;;0.30;;
17947;SDS011;9099;47.958;11.366;2022-10-16T15:11:11;0.98;;;0.57;;
17947;SDS011;9099;47.958;11.366;2022-10-16T15:13:40;0.43;;;0.43;;
17947;SDS011;9099;47.958;11.366;2022-10-16T15:16:08;2.58;;;0.80;;